createdAt,value
2018-04-18T00:02:03.547Z,11.90
2018-04-18T00:04:32.082Z,11.80
2018-04-18T00:07:04.594Z,11.70
2018-04-18T00:09:34.261Z,11.60
2018-04-18T00:12:07.087Z,11.60
2018-04-18T00:14:37.530Z,11.60
2018-04-18T00:17:10.853Z,11.60
2018-04-18T00:19:39.335Z,11.70
2018-04-18T00:22:12.281Z,11.70
2018-04-18T00:24:42.276Z,11.70
2018-04-18T00:27:15.428Z,11.70
2018-04-18T00:29:43.949Z,11.70
2018-04-18T00:32:16.700Z,11.70
2018-04-18T00:37:19.945Z,11.70
2018-04-18T00:39:48.690Z,11.60
2018-04-18T00:42:30.049Z,11.50
2018-04-18T00:49:57.939Z,10.40
2018-04-18T00:52:27.809Z,11.30
2018-04-18T00:54:57.071Z,11.20
2018-04-18T00:57:28.632Z,11.20
2018-04-18T00:59:57.412Z,11.10
2018-04-18T01:02:31.600Z,11.10
2018-04-18T01:05:00.112Z,11.10
2018-04-18T01:07:32.326Z,11.00
2018-04-18T01:10:00.859Z,11.00
2018-04-18T01:12:43.037Z,10.90
2018-04-18T01:15:12.772Z,10.90
2018-04-18T01:17:42.412Z,10.80
2018-04-18T01:20:10.959Z,10.70
2018-04-18T01:22:39.748Z,10.60
2018-04-18T01:25:08.793Z,10.60
2018-04-18T01:27:41.406Z,10.30
2018-04-18T01:30:11.026Z,10.60
2018-04-18T01:32:44.150Z,10.70
2018-04-18T01:35:12.664Z,10.60
2018-04-18T01:37:48.385Z,10.60
2018-04-18T01:40:17.281Z,10.50
2018-04-18T01:42:48.597Z,10.40
2018-04-18T01:45:17.585Z,10.30
2018-04-18T01:47:50.320Z,10.30
2018-04-18T01:50:18.808Z,10.30
2018-04-18T01:52:52.259Z,10.30
2018-04-18T01:55:22.309Z,10.30
2018-04-18T01:57:55.830Z,10.40
2018-04-18T02:00:24.381Z,10.40
2018-04-18T02:03:06.180Z,10.40
2018-04-18T02:05:35.508Z,10.40
2018-04-18T02:08:04.289Z,10.80
2018-04-18T02:10:32.774Z,10.50
2018-04-18T02:13:04.709Z,10.40
2018-04-18T02:15:33.680Z,10.30
2018-04-18T02:18:07.130Z,10.30
2018-04-18T02:23:14.292Z,10.30
2018-04-18T02:25:43.577Z,10.30
2018-04-18T02:28:13.884Z,10.30
2018-04-18T02:30:43.544Z,10.30
2018-04-18T02:33:15.681Z,10.30
2018-04-18T02:35:44.257Z,10.30
2018-04-18T02:38:16.256Z,10.30
2018-04-18T02:40:45.080Z,10.40
2018-04-18T02:43:27.484Z,10.50
2018-04-18T02:48:25.953Z,10.30
2018-04-18T02:53:24.100Z,10.20
2018-04-18T02:55:52.984Z,10.20
2018-04-18T02:58:25.222Z,10.20
2018-04-18T03:00:53.729Z,8.80
2018-04-18T03:03:28.724Z,10.20
2018-04-18T03:05:58.365Z,10.20
2018-04-18T03:08:31.253Z,10.20
2018-04-18T03:11:00.225Z,10.10
2018-04-18T03:13:31.511Z,10.10
2018-04-18T03:16:00.019Z,10.00
2018-04-18T03:18:33.589Z,10.00
2018-04-18T03:21:03.647Z,10.00
2018-04-18T03:23:36.832Z,10.00
2018-04-18T03:26:05.385Z,9.90
2018-04-18T03:28:37.923Z,9.80
2018-04-18T03:31:06.710Z,9.70
2018-04-18T03:36:08.637Z,9.60
2018-04-18T03:38:42.054Z,9.60
2018-04-18T03:41:11.365Z,9.60
2018-04-18T03:43:44.776Z,9.60
2018-04-18T03:46:13.720Z,9.70
2018-04-18T03:48:56.129Z,9.70
2018-04-18T03:51:24.664Z,9.70
2018-04-18T03:53:53.271Z,9.70
2018-04-18T03:58:53.510Z,10.00
2018-04-18T04:01:23.516Z,9.70
2018-04-18T04:03:54.907Z,9.70
2018-04-18T04:06:24.175Z,9.70
2018-04-18T04:09:06.884Z,9.70
2018-04-18T04:11:35.841Z,9.70
2018-04-18T04:14:04.841Z,9.60
2018-04-18T04:17:47.005Z,9.70
2018-04-18T04:24:05.680Z,9.60
2018-04-18T04:29:10.320Z,9.70
2018-04-18T04:31:39.628Z,9.60
2018-04-18T04:34:11.901Z,9.40
2018-04-18T04:36:40.421Z,10.70
2018-04-18T04:41:44.008Z,9.40
2018-04-18T04:44:16.040Z,9.30
2018-04-18T04:49:26.936Z,9.60
2018-04-18T04:51:56.921Z,9.50
2018-04-18T04:54:25.485Z,9.60
2018-04-18T04:56:54.312Z,9.50
2018-04-18T04:59:23.578Z,9.50
2018-04-18T05:01:52.845Z,9.70
2018-04-18T05:04:34.449Z,9.80
2018-04-18T05:07:03.400Z,9.90
2018-04-18T05:09:33.956Z,10.00
2018-04-18T05:12:03.612Z,10.10
2018-04-18T05:14:33.221Z,10.20
2018-04-18T05:19:32.581Z,10.30
2018-04-18T05:22:01.860Z,10.40
2018-04-18T05:24:34.716Z,10.50
2018-04-18T05:27:03.891Z,10.60
2018-04-18T05:29:45.315Z,10.70
2018-04-18T05:32:14.271Z,10.80
2018-04-18T05:34:43.544Z,10.90
2018-04-18T05:37:13.203Z,11.00
2018-04-18T05:42:11.573Z,11.20
2018-04-18T05:44:43.988Z,11.10
2018-04-18T05:47:13.282Z,11.10
2018-04-18T05:52:15.616Z,11.30
2018-04-18T05:54:52.817Z,11.30
2018-04-18T05:59:51.667Z,11.60
2018-04-18T06:02:21.001Z,12.10
2018-04-18T06:05:02.720Z,12.00
2018-04-18T06:07:31.225Z,12.10
2018-04-18T06:09:59.756Z,12.20
2018-04-18T06:14:59.472Z,12.60
2018-04-18T06:17:28.754Z,12.80
2018-04-18T06:20:10.529Z,13.00
2018-04-18T06:22:39.808Z,13.50
2018-04-18T06:27:38.168Z,17.00
2018-04-18T06:30:07.490Z,18.40
2018-04-18T06:32:37.042Z,20.30
2018-04-18T06:35:10.016Z,22.70
2018-04-18T06:37:38.537Z,24.40
2018-04-18T06:40:13.005Z,26.20
2018-04-18T06:42:41.540Z,27.10
2018-04-18T06:45:14.577Z,27.10
2018-04-18T06:47:43.776Z,28.10
2018-04-18T06:50:25.930Z,27.50
2018-04-18T06:52:56.902Z,25.30
2018-04-18T06:55:25.420Z,25.50
2018-04-18T06:57:54.704Z,25.90
2018-04-18T07:00:23.488Z,26.30
2018-04-18T07:02:52.014Z,27.50
2018-04-18T07:05:23.776Z,26.70
2018-04-18T07:07:52.308Z,25.80
2018-04-18T07:10:25.030Z,27.70
2018-04-18T07:12:54.612Z,27.70
2018-04-18T07:15:27.264Z,26.90
2018-04-18T07:17:56.556Z,24.40
2018-04-18T07:20:29.029Z,25.80
2018-04-18T07:22:58.303Z,25.50
2018-04-18T07:25:32.100Z,25.40
2018-04-18T07:28:00.616Z,26.40
2018-04-18T07:30:34.315Z,28.70
2018-04-18T07:33:05.009Z,27.70
2018-04-18T07:35:37.069Z,29.40
2018-04-18T07:38:05.620Z,30.20
2018-04-18T07:40:40.546Z,30.20
2018-04-18T07:43:09.830Z,30.30
2018-04-18T07:45:42.037Z,29.40
2018-04-18T07:48:10.620Z,29.30
2018-04-18T07:50:52.870Z,29.00
2018-04-18T07:53:21.417Z,28.40
2018-04-18T07:55:50.824Z,28.50
2018-04-18T07:58:20.461Z,29.10
2018-04-18T08:00:50.089Z,28.50
2018-04-18T08:03:18.613Z,27.60
2018-04-18T08:06:00.255Z,28.60
2018-04-18T08:08:29.393Z,28.80
2018-04-18T08:10:58.782Z,28.90
2018-04-18T08:13:27.322Z,29.70
2018-04-18T08:15:57.086Z,30.00
2018-04-18T08:18:26.609Z,30.10
2018-04-18T08:21:08.539Z,29.60
2018-04-18T08:23:37.345Z,29.20
2018-04-18T08:26:06.724Z,29.20
2018-04-18T08:28:35.545Z,29.20
2018-04-18T08:31:04.337Z,28.80
2018-04-18T08:33:33.250Z,28.40
2018-04-18T08:36:07.037Z,28.10
2018-04-18T08:38:36.048Z,28.80
2018-04-18T08:41:11.048Z,29.50
2018-04-18T08:43:40.313Z,29.90
2018-04-18T08:46:12.858Z,30.80
2018-04-18T08:48:42.210Z,29.30
2018-04-18T08:51:14.582Z,28.50
2018-04-18T08:53:43.506Z,29.10
2018-04-18T08:56:16.636Z,29.30
2018-04-18T08:58:45.458Z,29.10
2018-04-18T09:01:18.657Z,28.60
2018-04-18T09:03:47.197Z,27.50
2018-04-18T09:06:24.376Z,27.40
2018-04-18T09:08:53.328Z,27.80
2018-04-18T09:11:23.739Z,28.70
2018-04-18T09:13:53.876Z,28.20
2018-04-18T09:16:26.328Z,27.70
2018-04-18T09:18:54.890Z,28.30
2018-04-18T09:21:36.224Z,27.70
2018-04-18T09:24:05.494Z,27.20
2018-04-18T09:26:34.932Z,26.50
2018-04-18T09:29:04.197Z,25.10
2018-04-18T09:34:04.239Z,23.10
2018-04-18T09:36:35.709Z,22.30
2018-04-18T09:39:05.585Z,21.70
2018-04-18T09:41:38.297Z,21.50
2018-04-18T09:44:06.830Z,21.10
2018-04-18T09:46:39.813Z,21.20
2018-04-18T09:49:08.811Z,21.20
2018-04-18T09:51:43.722Z,21.40
2018-04-18T09:54:13.374Z,21.50
2018-04-18T09:56:45.624Z,21.40
2018-04-18T09:59:14.125Z,21.20
2018-04-18T10:02:00.608Z,21.20
2018-04-18T10:04:29.611Z,22.60
2018-04-18T10:06:58.829Z,21.40
2018-04-18T10:09:28.885Z,21.20
2018-04-18T10:11:58.202Z,20.90
2018-04-18T10:14:27.041Z,21.40
2018-04-18T10:16:56.174Z,21.50
2018-04-18T10:19:24.730Z,21.60
2018-04-18T10:24:26.622Z,21.30
2018-04-18T10:26:59.487Z,21.50
2018-04-18T10:29:30.205Z,21.60
2018-04-18T10:32:03.387Z,20.50
2018-04-18T10:34:31.924Z,21.60
2018-04-18T10:39:35.524Z,21.70
2018-04-18T10:42:09.479Z,21.60
2018-04-18T10:44:38.705Z,21.80
2018-04-18T10:47:10.956Z,21.10
2018-04-18T10:49:39.482Z,22.00
2018-04-18T10:52:13.833Z,21.80
2018-04-18T10:54:43.169Z,21.80
2018-04-18T10:57:15.904Z,21.90
2018-04-18T10:59:44.762Z,22.00
2018-04-18T11:02:17.983Z,22.10
2018-04-18T11:04:46.506Z,22.20
2018-04-18T11:07:18.859Z,22.20
2018-04-18T11:09:48.549Z,22.50
2018-04-18T11:12:21.685Z,22.70
2018-04-18T11:14:50.232Z,22.60
2018-04-18T11:17:24.180Z,22.70
2018-04-18T11:19:53.457Z,22.60
2018-04-18T11:22:28.582Z,22.70
2018-04-18T11:24:57.442Z,22.80
2018-04-18T11:27:30.785Z,22.80
2018-04-18T11:29:59.425Z,22.80
2018-04-18T11:32:31.481Z,22.80
2018-04-18T11:35:01.254Z,22.90
2018-04-18T11:37:42.237Z,22.90
2018-04-18T11:40:12.252Z,22.90
2018-04-18T11:42:40.768Z,23.10
2018-04-18T11:45:10.071Z,23.10
2018-04-18T11:47:39.769Z,22.80
2018-04-18T11:50:08.740Z,23.20
2018-04-18T11:52:41.053Z,23.20
2018-04-18T11:55:10.741Z,23.10
2018-04-18T11:57:44.023Z,23.40
2018-04-18T12:00:14.102Z,23.10
2018-04-18T12:02:46.719Z,23.10
2018-04-18T12:05:16.384Z,23.20
2018-04-18T12:07:48.888Z,23.20
2018-04-18T12:12:48.825Z,23.20
2018-04-18T12:15:17.804Z,23.20
2018-04-18T12:17:49.827Z,22.80
2018-04-18T12:22:58.438Z,23.30
2018-04-18T12:25:28.512Z,23.30
2018-04-18T12:27:59.634Z,23.40
2018-04-18T12:30:28.577Z,23.50
2018-04-18T12:33:02.253Z,23.60
2018-04-18T12:35:31.566Z,23.70
2018-04-18T12:38:04.323Z,23.70
2018-04-18T12:43:07.589Z,23.90
2018-04-18T12:45:36.862Z,23.80
2018-04-18T12:48:10.467Z,23.60
2018-04-18T12:50:39.005Z,23.70
2018-04-18T12:53:21.678Z,23.70
2018-04-18T12:55:50.659Z,23.90
2018-04-18T12:58:20.017Z,24.00
2018-04-18T13:00:49.802Z,24.10
2018-04-18T13:03:18.785Z,24.30
2018-04-18T13:05:48.449Z,24.30
2018-04-18T13:08:18.689Z,24.40
2018-04-18T13:10:48.738Z,24.60
2018-04-18T13:13:20.717Z,24.80
2018-04-18T13:15:50.761Z,24.70
2018-04-18T13:18:22.905Z,24.60
2018-04-18T13:20:51.486Z,24.50
2018-04-18T13:23:31.172Z,24.60
2018-04-18T13:25:59.699Z,24.50
2018-04-18T13:28:30.219Z,24.60
2018-04-18T13:30:59.504Z,24.80
2018-04-18T13:33:29.874Z,24.90
2018-04-18T13:35:58.419Z,24.50
2018-04-18T13:41:10.651Z,24.60
2018-04-18T13:43:39.160Z,24.60
2018-04-18T13:46:09.277Z,24.70
2018-04-18T13:48:40.291Z,24.80
2018-04-18T13:51:10.042Z,24.70
2018-04-18T13:53:40.740Z,24.80
2018-04-18T13:56:10.805Z,23.80
2018-04-18T13:58:42.985Z,24.40
2018-04-18T14:01:11.761Z,24.50
2018-04-18T14:03:45.908Z,24.40
2018-04-18T14:06:15.232Z,24.40
2018-04-18T14:08:48.661Z,24.40
2018-04-18T14:13:50.685Z,24.60
2018-04-18T14:16:19.966Z,24.70
2018-04-18T14:19:01.907Z,24.70
2018-04-18T14:21:30.432Z,24.90
2018-04-18T14:23:59.729Z,25.00
2018-04-18T14:26:28.934Z,25.00
2018-04-18T14:31:27.011Z,24.90
2018-04-18T14:33:59.865Z,24.80
2018-04-18T14:36:28.782Z,24.80
2018-04-18T14:39:11.775Z,24.80
2018-04-18T14:41:41.059Z,25.00
2018-04-18T14:46:50.713Z,25.20
2018-04-18T14:49:19.501Z,25.10
2018-04-18T14:51:48.915Z,25.30
2018-04-18T14:54:18.553Z,25.20
2018-04-18T14:56:47.385Z,25.10
2018-04-18T15:01:46.982Z,25.20
2018-04-18T15:04:16.770Z,25.30
2018-04-18T15:06:45.301Z,25.30
2018-04-18T15:11:47.575Z,25.40
2018-04-18T15:14:19.961Z,25.20
2018-04-18T15:19:30.972Z,25.10
2018-04-18T15:21:59.509Z,25.20
2018-04-18T15:24:28.709Z,25.30
2018-04-18T15:26:57.341Z,25.30
2018-04-18T15:29:29.194Z,25.10
2018-04-18T15:31:58.841Z,25.30
2018-04-18T15:36:59.685Z,25.30
2018-04-18T15:39:32.309Z,25.10
2018-04-18T15:42:01.569Z,25.10
2018-04-18T15:44:35.135Z,25.20
2018-04-18T15:47:04.061Z,25.20
2018-04-18T15:49:38.475Z,25.30
2018-04-18T15:52:07.014Z,25.30
2018-04-18T15:54:40.434Z,25.20
2018-04-18T15:57:09.366Z,25.30
2018-04-18T15:59:43.193Z,25.30
2018-04-18T16:04:54.496Z,25.10
2018-04-18T16:07:23.388Z,24.90
2018-04-18T16:09:53.813Z,24.80
2018-04-18T16:14:52.405Z,25.70
2018-04-18T16:17:21.970Z,24.70
2018-04-18T16:19:54.096Z,24.70
2018-04-18T16:22:24.124Z,24.60
2018-04-18T16:24:55.925Z,24.60
2018-04-18T16:27:25.214Z,24.70
2018-04-18T16:29:58.155Z,24.60
2018-04-18T16:32:27.973Z,24.60
2018-04-18T16:37:30.516Z,24.60
2018-04-18T16:40:11.683Z,24.60
2018-04-18T16:42:40.208Z,24.50
2018-04-18T16:45:09.620Z,24.40
2018-04-18T16:47:38.845Z,24.40
2018-04-18T16:50:09.647Z,24.40
2018-04-18T16:52:38.653Z,24.40
2018-04-18T16:55:11.816Z,24.30
2018-04-18T16:57:41.162Z,24.30
2018-04-18T17:00:22.417Z,24.20
2018-04-18T17:02:52.188Z,24.10
2018-04-18T17:05:20.701Z,24.10
2018-04-18T17:07:50.140Z,24.10
2018-04-18T17:10:18.984Z,24.10
2018-04-18T17:12:48.688Z,24.00
2018-04-18T17:15:19.949Z,23.90
2018-04-18T17:17:50.526Z,23.90
2018-04-18T17:20:23.689Z,23.80
2018-04-18T17:25:25.049Z,23.70
2018-04-18T17:27:53.589Z,23.60
2018-04-18T17:30:26.336Z,23.60
2018-04-18T17:32:55.169Z,23.50
2018-04-18T17:35:28.250Z,23.40
2018-04-18T17:40:30.933Z,23.20
2018-04-18T17:42:59.457Z,23.10
2018-04-18T17:45:33.316Z,23.00
2018-04-18T17:48:02.092Z,23.00
2018-04-18T17:50:36.020Z,22.90
2018-04-18T17:53:04.793Z,22.80
2018-04-18T17:55:38.170Z,22.70
2018-04-18T17:58:06.721Z,22.60
2018-04-18T18:00:40.174Z,22.50
2018-04-18T18:03:09.057Z,22.30
2018-04-18T18:05:51.885Z,22.70
2018-04-18T18:08:20.712Z,22.20
2018-04-18T18:10:51.064Z,22.00
2018-04-18T18:13:19.609Z,22.00
2018-04-18T18:15:48.813Z,21.80
2018-04-18T18:20:51.269Z,21.60
2018-04-18T18:23:19.849Z,21.50
2018-04-18T18:28:21.316Z,21.10
2018-04-18T18:30:56.043Z,21.00
2018-04-18T18:33:24.569Z,20.70
2018-04-18T18:35:58.745Z,20.60
2018-04-18T18:38:27.316Z,20.40
2018-04-18T18:41:00.947Z,20.30
2018-04-18T18:43:29.717Z,20.20
2018-04-18T18:46:03.181Z,20.20
2018-04-18T18:48:31.685Z,20.20
2018-04-18T18:51:04.708Z,20.40
2018-04-18T18:53:34.641Z,20.20
2018-04-18T18:56:11.724Z,20.20
2018-04-18T18:58:40.980Z,20.10
2018-04-18T19:01:12.294Z,20.10
2018-04-18T19:03:40.865Z,20.10
2018-04-18T19:06:22.045Z,20.10
2018-04-18T19:08:51.329Z,20.20
2018-04-18T19:11:20.624Z,20.20
2018-04-18T19:13:51.785Z,20.20
2018-04-18T19:18:51.393Z,20.00
2018-04-18T19:21:20.969Z,19.80
2018-04-18T19:23:49.845Z,19.40
2018-04-18T19:26:22.682Z,19.20
2018-04-18T19:31:24.938Z,19.00
2018-04-18T19:33:53.849Z,18.90
2018-04-18T19:38:54.903Z,18.90
2018-04-18T19:41:29.389Z,18.80
2018-04-18T19:43:59.654Z,18.90
2018-04-18T19:46:32.500Z,18.80
2018-04-18T19:49:01.052Z,18.90
2018-04-18T19:51:34.521Z,18.90
2018-04-18T19:54:04.345Z,18.90
2018-04-18T19:56:36.120Z,18.90
2018-04-18T19:59:05.437Z,18.80
2018-04-18T20:01:38.981Z,18.70
2018-04-18T20:04:08.637Z,18.60
2018-04-18T20:06:42.659Z,18.50
2018-04-18T20:09:12.252Z,18.50
2018-04-18T20:11:44.017Z,18.40
2018-04-18T20:14:13.657Z,18.40
2018-04-18T20:16:54.863Z,18.30
2018-04-18T20:19:24.165Z,18.30
2018-04-18T20:21:54.124Z,18.20
2018-04-18T20:24:24.278Z,18.20
2018-04-18T20:26:53.565Z,18.20
2018-04-18T20:29:22.396Z,18.20
2018-04-18T20:31:53.757Z,18.20
2018-04-18T20:34:22.284Z,18.20
2018-04-18T20:36:54.938Z,18.20
2018-04-18T20:39:23.871Z,18.20
2018-04-18T20:41:58.451Z,17.90
2018-04-18T20:44:26.997Z,17.70
2018-04-18T20:47:01.225Z,17.40
2018-04-18T20:49:31.190Z,17.30
2018-04-18T20:52:12.978Z,17.10
2018-04-18T20:54:42.164Z,17.10
2018-04-18T20:57:10.742Z,17.00
2018-04-18T20:59:39.232Z,16.90
2018-04-18T21:02:10.795Z,16.80
2018-04-18T21:04:39.296Z,16.60
2018-04-18T21:07:21.850Z,16.60
2018-04-18T21:09:51.831Z,16.60
2018-04-18T21:12:21.140Z,16.60
2018-04-18T21:14:51.405Z,16.70
2018-04-18T21:17:20.741Z,16.80
2018-04-18T21:19:50.845Z,16.80
2018-04-18T21:22:19.620Z,16.70
2018-04-18T21:24:48.921Z,16.80
2018-04-18T21:27:30.237Z,16.80
2018-04-18T21:29:59.813Z,16.70
2018-04-18T21:32:28.911Z,16.70
2018-04-18T21:34:57.436Z,16.70
2018-04-18T21:37:28.673Z,16.70
2018-04-18T21:39:59.042Z,16.70
2018-04-18T21:42:31.474Z,16.70
2018-04-18T21:45:01.169Z,16.80
2018-04-18T21:47:32.601Z,16.80
2018-04-18T21:50:01.497Z,16.80
2018-04-18T21:52:36.232Z,16.80
2018-04-18T21:55:04.744Z,16.70
2018-04-18T21:57:37.473Z,16.70
2018-04-18T22:00:06.947Z,16.80
2018-04-18T22:02:48.250Z,16.90
2018-04-18T22:07:47.349Z,16.90
2018-04-18T22:10:15.993Z,16.80
2018-04-18T22:12:47.079Z,16.80
2018-04-18T22:15:15.685Z,16.90
2018-04-18T22:17:48.918Z,16.90
2018-04-18T22:20:18.592Z,16.90
2018-04-18T22:22:50.636Z,16.90
2018-04-18T22:25:19.143Z,16.80
2018-04-18T22:27:52.047Z,16.70
2018-04-18T22:30:21.384Z,16.60
2018-04-18T22:32:55.157Z,16.50
2018-04-18T22:35:25.077Z,16.50
2018-04-18T22:37:57.797Z,16.40
2018-04-18T22:40:26.297Z,16.40
2018-04-18T22:43:08.732Z,16.40
2018-04-18T22:45:38.724Z,16.40
2018-04-18T22:48:07.890Z,16.50
2018-04-18T22:50:36.409Z,16.50
2018-04-18T22:53:04.929Z,16.50
2018-04-18T22:55:34.116Z,16.60
2018-04-18T22:58:07.440Z,16.60
2018-04-18T23:00:35.964Z,16.70
2018-04-18T23:03:04.453Z,16.30
2018-04-18T23:05:33.745Z,15.80
2018-04-18T23:08:02.540Z,15.40
2018-04-18T23:10:31.848Z,15.10
2018-04-18T23:13:01.163Z,14.90
2018-04-18T23:15:31.089Z,14.60
2018-04-18T23:17:59.640Z,14.50
2018-04-18T23:20:28.964Z,14.50
2018-04-18T23:22:58.135Z,14.40
2018-04-18T23:25:27.432Z,14.40
2018-04-18T23:27:56.865Z,14.40
2018-04-18T23:30:25.672Z,14.60
2018-04-18T23:32:54.178Z,14.70
2018-04-18T23:35:27.537Z,14.80
2018-04-18T23:37:56.358Z,15.00
2018-04-18T23:40:29.105Z,15.10
2018-04-18T23:42:57.634Z,15.10
2018-04-18T23:45:30.474Z,15.10
2018-04-18T23:47:58.996Z,15.10
2018-04-18T23:50:32.491Z,15.10
2018-04-18T23:53:01.240Z,15.00
2018-04-18T23:55:34.308Z,15.00
2018-04-18T23:58:04.345Z,15.10
